createdAt,value
2018-09-28T00:00:11.303Z,80.29
2018-09-28T00:02:40.290Z,80.94
2018-09-28T00:05:09.285Z,80.93
2018-09-28T00:07:38.275Z,80.71
2018-09-28T00:10:18.268Z,80.68
2018-09-28T00:12:47.266Z,80.89
2018-09-28T00:15:16.354Z,81.30
2018-09-28T00:17:45.384Z,81.64
2018-09-28T00:20:14.382Z,81.74
2018-09-28T00:22:43.363Z,82.19
2018-09-28T00:25:12.341Z,82.47
2018-09-28T00:27:41.309Z,83.10
2018-09-28T00:30:10.294Z,83.31
2018-09-28T00:32:39.275Z,83.15
2018-09-28T00:35:08.269Z,82.45
2018-09-28T00:37:37.263Z,82.73
2018-09-28T00:40:06.253Z,82.63
2018-09-28T00:42:35.279Z,82.86
2018-09-28T00:45:04.266Z,82.74
2018-09-28T00:47:33.255Z,81.82
2018-09-28T00:50:02.255Z,82.63
2018-09-28T00:52:31.231Z,82.74
2018-09-28T00:55:00.247Z,83.28
2018-09-28T00:57:35.858Z,82.33
2018-09-28T01:00:04.847Z,82.23
2018-09-28T01:02:33.887Z,81.69
2018-09-28T01:05:02.893Z,82.05
2018-09-28T01:07:31.873Z,82.07
2018-09-28T01:10:00.907Z,81.80
2018-09-28T01:12:29.905Z,82.15
2018-09-28T01:14:58.962Z,82.74
2018-09-28T01:17:27.934Z,82.33
2018-09-28T01:19:56.921Z,82.45
2018-09-28T01:22:25.901Z,82.83
2018-09-28T01:24:54.877Z,83.21
2018-09-28T01:27:23.858Z,83.55
2018-09-28T01:29:53.138Z,83.51
2018-09-28T01:32:22.135Z,84.01
2018-09-28T01:34:51.158Z,83.73
2018-09-28T01:37:20.205Z,83.75
2018-09-28T01:39:49.199Z,83.99
2018-09-28T01:42:18.277Z,83.62
2018-09-28T01:44:47.269Z,84.41
2018-09-28T01:47:16.277Z,84.50
2018-09-28T01:49:45.374Z,84.22
2018-09-28T01:52:14.374Z,84.77
2018-09-28T01:54:43.378Z,84.81
2018-09-28T01:57:12.369Z,84.76
2018-09-28T01:59:41.341Z,85.03
2018-09-28T02:02:10.373Z,84.29
2018-09-28T02:04:39.497Z,84.77
2018-09-28T02:07:08.522Z,84.88
2018-09-28T02:09:37.494Z,85.11
2018-09-28T02:12:06.526Z,85.01
2018-09-28T02:14:35.494Z,85.90
2018-09-28T02:17:04.520Z,85.50
2018-09-28T02:19:33.505Z,85.80
2018-09-28T02:22:02.655Z,85.52
2018-09-28T02:24:31.627Z,85.58
2018-09-28T02:27:00.633Z,86.27
2018-09-28T02:29:29.583Z,86.17
2018-09-28T02:31:58.578Z,86.13
2018-09-28T02:34:27.550Z,86.34
2018-09-28T02:36:56.537Z,86.56
2018-09-28T02:39:25.549Z,86.46
2018-09-28T02:41:54.953Z,86.38
2018-09-28T02:44:23.927Z,86.29
2018-09-28T02:46:52.937Z,86.66
2018-09-28T02:49:21.922Z,86.95
2018-09-28T02:51:50.930Z,86.75
2018-09-28T02:54:19.940Z,86.47
2018-09-28T02:56:48.970Z,86.33
2018-09-28T02:59:17.932Z,85.87
2018-09-28T03:01:47.027Z,86.94
2018-09-28T03:04:16.021Z,86.06
2018-09-28T03:06:44.998Z,86.65
2018-09-28T03:09:13.995Z,86.43
2018-09-28T03:11:43.070Z,86.83
2018-09-28T03:14:12.089Z,86.48
2018-09-28T03:16:41.095Z,87.02
2018-09-28T03:19:10.079Z,86.66
2018-09-28T03:21:39.072Z,87.40
2018-09-28T03:24:08.038Z,86.94
2018-09-28T03:26:37.026Z,87.85
2018-09-28T03:29:06.012Z,87.07
2018-09-28T03:31:35.146Z,87.39
2018-09-28T03:34:04.141Z,88.01
2018-09-28T03:36:33.111Z,87.67
2018-09-28T03:39:02.082Z,87.77
2018-09-28T03:41:31.270Z,87.85
2018-09-28T03:44:00.233Z,87.65
2018-09-28T03:46:29.282Z,87.65
2018-09-28T03:48:58.258Z,87.61
2018-09-28T03:51:27.337Z,88.14
2018-09-28T03:53:56.315Z,88.03
2018-09-28T03:56:25.298Z,87.70
2018-09-28T03:58:54.248Z,88.13
2018-09-28T04:01:23.227Z,88.03
2018-09-28T04:03:52.194Z,88.17
2018-09-28T04:06:21.165Z,88.04
2018-09-28T04:08:50.170Z,88.04
2018-09-28T04:11:19.225Z,88.20
2018-09-28T04:13:48.193Z,88.69
2018-09-28T04:16:17.180Z,88.52
2018-09-28T04:18:46.338Z,88.69
2018-09-28T04:21:15.322Z,88.46
2018-09-28T04:23:44.294Z,88.61
2018-09-28T04:26:13.324Z,88.56
2018-09-28T04:28:42.286Z,88.92
2018-09-28T04:31:11.262Z,88.32
2018-09-28T04:33:40.233Z,88.41
2018-09-28T04:36:09.225Z,88.21
2018-09-28T04:38:38.293Z,88.36
2018-09-28T04:41:07.270Z,88.46
2018-09-28T04:43:36.279Z,89.28
2018-09-28T04:46:05.241Z,89.26
2018-09-28T04:48:34.286Z,88.55
2018-09-28T04:51:03.242Z,89.17
2018-09-28T04:53:32.221Z,89.26
2018-09-28T04:56:01.827Z,88.74
2018-09-28T04:58:30.789Z,89.47
2018-09-28T05:00:59.750Z,89.00
2018-09-28T05:03:28.792Z,89.10
2018-09-28T05:05:57.756Z,88.99
2018-09-28T05:08:26.729Z,88.94
2018-09-28T05:10:55.785Z,89.38
2018-09-28T05:13:25.063Z,89.76
2018-09-28T05:15:54.034Z,89.52
2018-09-28T05:18:23.091Z,89.54
2018-09-28T05:20:52.270Z,89.16
2018-09-28T05:23:21.253Z,89.71
2018-09-28T05:25:50.262Z,89.71
2018-09-28T05:28:19.237Z,89.71
2018-09-28T05:30:53.969Z,89.52
2018-09-28T05:33:17.191Z,89.26
2018-09-28T05:35:46.178Z,89.72
2018-09-28T05:38:15.188Z,89.07
2018-09-28T05:40:44.137Z,89.48
2018-09-28T05:43:13.164Z,89.33
2018-09-28T05:45:42.129Z,89.96
2018-09-28T05:48:11.127Z,89.78
2018-09-28T05:50:40.137Z,89.41
2018-09-28T05:53:09.127Z,88.94
2018-09-28T05:55:38.090Z,89.00
2018-09-28T05:58:12.337Z,89.37
2018-09-28T06:00:46.542Z,89.26
2018-09-28T06:03:18.737Z,88.51
2018-09-28T06:05:52.946Z,88.59
2018-09-28T06:08:21.909Z,88.92
2018-09-28T06:10:50.901Z,88.63
2018-09-28T06:13:21.111Z,88.27
2018-09-28T06:15:50.234Z,88.14
2018-09-28T06:18:19.289Z,88.66
2018-09-28T06:20:48.477Z,88.44
2018-09-28T06:23:17.530Z,88.00
2018-09-28T06:25:46.548Z,88.29
2018-09-28T06:28:15.549Z,87.97
2018-09-28T06:30:44.499Z,88.14
2018-09-28T06:33:13.637Z,87.50
2018-09-28T06:35:42.706Z,87.53
2018-09-28T06:38:11.716Z,87.59
2018-09-28T06:40:40.682Z,87.64
2018-09-28T06:43:09.806Z,88.16
2018-09-28T06:45:38.788Z,87.96
2018-09-28T06:48:07.884Z,87.74
2018-09-28T06:50:36.876Z,88.12
2018-09-28T06:53:05.863Z,87.75
2018-09-28T06:55:34.850Z,87.69
2018-09-28T06:58:03.866Z,86.75
2018-09-28T07:00:32.837Z,86.91
2018-09-28T07:03:01.870Z,87.04
2018-09-28T07:05:30.862Z,86.94
2018-09-28T07:07:59.984Z,86.50
2018-09-28T07:10:28.960Z,86.39
2018-09-28T07:12:57.961Z,86.06
2018-09-28T07:15:26.933Z,85.12
2018-09-28T07:17:56.008Z,83.48
2018-09-28T07:20:24.970Z,83.18
2018-09-28T07:22:54.065Z,82.19
2018-09-28T07:25:23.072Z,82.25
2018-09-28T07:27:52.053Z,81.84
2018-09-28T07:30:21.117Z,81.79
2018-09-28T07:32:50.045Z,80.50
2018-09-28T07:35:19.165Z,79.63
2018-09-28T07:37:48.298Z,79.78
2018-09-28T07:40:17.322Z,79.38
2018-09-28T07:42:46.340Z,79.57
2018-09-28T07:45:15.322Z,78.78
2018-09-28T07:47:44.450Z,78.63
2018-09-28T07:50:13.437Z,79.29
2018-09-28T07:52:42.579Z,77.86
2018-09-28T07:55:11.949Z,77.03
2018-09-28T07:57:41.621Z,76.71
2018-09-28T08:00:10.625Z,76.43
2018-09-28T08:02:39.623Z,75.66
2018-09-28T08:05:08.670Z,75.84
2018-09-28T08:07:37.670Z,74.62
2018-09-28T08:10:06.769Z,75.47
2018-09-28T08:12:35.753Z,74.82
2018-09-28T08:15:04.938Z,74.38
2018-09-28T08:17:34.026Z,74.71
2018-09-28T08:20:03.039Z,73.46
2018-09-28T08:22:32.018Z,74.06
2018-09-28T08:25:01.093Z,74.25
2018-09-28T08:27:30.038Z,73.71
2018-09-28T08:29:59.044Z,73.10
2018-09-28T08:32:28.246Z,72.32
2018-09-28T08:34:57.303Z,72.62
2018-09-28T08:37:26.313Z,71.37
2018-09-28T08:39:55.318Z,71.17
2018-09-28T08:42:24.430Z,70.86
2018-09-28T08:44:53.562Z,70.95
2018-09-28T08:47:22.542Z,70.42
2018-09-28T08:49:51.567Z,70.27
2018-09-28T08:52:20.554Z,69.59
2018-09-28T08:54:49.601Z,69.24
2018-09-28T08:57:18.538Z,69.37
2018-09-28T08:59:47.584Z,67.86
2018-09-28T09:02:16.790Z,68.26
2018-09-28T09:04:45.629Z,67.78
2018-09-28T09:07:14.694Z,66.20
2018-09-28T09:09:43.706Z,67.09
2018-09-28T09:12:12.807Z,66.65
2018-09-28T09:14:41.830Z,65.22
2018-09-28T09:17:10.846Z,66.25
2018-09-28T09:19:39.861Z,64.55
2018-09-28T09:22:08.854Z,64.10
2018-09-28T09:24:37.986Z,62.33
2018-09-28T09:27:07.019Z,60.77
2018-09-28T09:29:36.081Z,58.91
2018-09-28T09:32:05.093Z,57.47
2018-09-28T09:34:34.215Z,58.64
2018-09-28T09:37:03.223Z,58.42
2018-09-28T09:39:32.222Z,56.78
2018-09-28T09:42:01.234Z,57.81
2018-09-28T09:44:30.378Z,57.51
2018-09-28T09:46:59.452Z,56.76
2018-09-28T09:49:28.492Z,56.67
2018-09-28T09:51:57.468Z,58.06
2018-09-28T09:54:26.602Z,56.16
2018-09-28T09:56:55.670Z,55.82
2018-09-28T09:59:24.731Z,55.08
2018-09-28T10:01:59.042Z,54.46
2018-09-28T10:04:28.095Z,54.02
2018-09-28T10:06:57.119Z,52.77
2018-09-28T10:09:26.219Z,52.56
2018-09-28T10:11:55.277Z,52.42
2018-09-28T10:14:24.281Z,52.53
2018-09-28T10:16:53.333Z,51.06
2018-09-28T10:19:22.419Z,51.69
2018-09-28T10:21:51.418Z,51.86
2018-09-28T10:24:20.554Z,51.46
2018-09-28T10:26:49.580Z,50.96
2018-09-28T10:29:18.642Z,51.52
2018-09-28T10:31:47.693Z,51.12
2018-09-28T10:34:16.745Z,50.13
2018-09-28T10:36:45.701Z,49.29
2018-09-28T10:39:14.783Z,50.58
2018-09-28T10:41:43.721Z,49.33
2018-09-28T10:44:13.010Z,49.85
2018-09-28T10:46:42.065Z,48.37
2018-09-28T10:49:11.017Z,49.29
2018-09-28T10:51:40.284Z,47.25
2018-09-28T10:54:09.194Z,47.78
2018-09-28T10:56:38.198Z,48.17
2018-09-28T10:59:07.221Z,46.09
2018-09-28T11:01:36.329Z,47.40
2018-09-28T11:04:05.330Z,46.96
2018-09-28T11:06:34.454Z,46.60
2018-09-28T11:09:03.751Z,46.63
2018-09-28T11:11:33.410Z,46.18
2018-09-28T11:14:02.645Z,45.61
2018-09-28T11:16:32.078Z,46.32
2018-09-28T11:19:01.170Z,45.82
2018-09-28T11:21:30.302Z,45.97
2018-09-28T11:23:59.297Z,45.20
2018-09-28T11:26:28.502Z,45.62
2018-09-28T11:28:57.579Z,46.09
2018-09-28T11:31:26.577Z,45.13
2018-09-28T11:33:55.658Z,44.68
2018-09-28T11:36:24.677Z,44.92
2018-09-28T11:38:53.658Z,43.93
2018-09-28T11:41:22.738Z,43.59
2018-09-28T11:43:51.737Z,43.10
2018-09-28T11:46:20.754Z,43.75
2018-09-28T11:48:49.741Z,41.90
2018-09-28T11:51:18.745Z,42.69
2018-09-28T11:53:47.741Z,41.95
2018-09-28T11:56:16.745Z,43.07
2018-09-28T11:58:45.817Z,41.62
2018-09-28T12:01:14.825Z,42.17
2018-09-28T12:03:43.954Z,39.98
2018-09-28T12:06:13.000Z,40.09
2018-09-28T12:08:41.969Z,41.11
2018-09-28T12:11:10.957Z,39.96
2018-09-28T12:13:40.019Z,40.39
2018-09-28T12:16:09.261Z,40.57
2018-09-28T12:18:38.447Z,40.47
2018-09-28T12:21:07.415Z,40.08
2018-09-28T12:23:36.385Z,38.71
2018-09-28T12:26:05.375Z,38.86
2018-09-28T12:28:34.380Z,38.58
2018-09-28T12:31:03.365Z,38.98
2018-09-28T12:33:32.402Z,39.09
2018-09-28T12:36:01.380Z,39.91
2018-09-28T12:38:30.467Z,38.46
2018-09-28T12:40:59.445Z,37.66
2018-09-28T12:43:35.029Z,36.03
2018-09-28T12:45:57.678Z,36.51
2018-09-28T12:48:26.653Z,34.83
2018-09-28T12:50:55.606Z,35.11
2018-09-28T12:53:24.610Z,35.20
2018-09-28T12:55:53.602Z,33.88
2018-09-28T12:58:22.613Z,34.19
2018-09-28T13:00:51.635Z,31.84
2018-09-28T13:03:20.578Z,34.25
2018-09-28T13:05:49.568Z,34.19
2018-09-28T13:08:18.581Z,32.97
2018-09-28T13:10:48.104Z,32.09
2018-09-28T13:13:17.835Z,29.73
2018-09-28T13:15:47.085Z,30.49
2018-09-28T13:18:16.188Z,30.97
2018-09-28T13:20:45.199Z,31.03
2018-09-28T13:23:14.133Z,30.13
2018-09-28T13:25:43.113Z,29.25
2018-09-28T13:28:12.118Z,30.75
2018-09-28T13:30:41.213Z,32.27
2018-09-28T13:33:10.154Z,31.71
2018-09-28T13:35:39.306Z,31.97
2018-09-28T13:38:08.423Z,33.13
2018-09-28T13:40:37.426Z,33.73
2018-09-28T13:43:06.498Z,34.36
2018-09-28T13:45:35.714Z,33.31
2018-09-28T13:48:04.666Z,32.51
2018-09-28T13:50:34.175Z,34.85
2018-09-28T13:53:03.239Z,34.18
2018-09-28T13:55:32.281Z,32.82
2018-09-28T13:58:01.298Z,32.23
2018-09-28T14:00:30.345Z,34.19
2018-09-28T14:02:59.407Z,32.38
2018-09-28T14:05:28.482Z,33.29
2018-09-28T14:07:57.461Z,33.79
2018-09-28T14:10:26.563Z,33.34
2018-09-28T14:12:55.570Z,33.89
2018-09-28T14:15:24.572Z,34.78
2018-09-28T14:17:53.611Z,35.35
2018-09-28T14:20:22.662Z,34.54
2018-09-28T14:22:51.666Z,35.59
2018-09-28T14:25:20.595Z,35.83
2018-09-28T14:27:49.681Z,35.25
2018-09-28T14:30:18.652Z,35.48
2018-09-28T14:32:47.712Z,35.31
2018-09-28T14:35:16.650Z,36.00
2018-09-28T14:37:45.674Z,35.39
2018-09-28T14:40:14.762Z,37.35
2018-09-28T14:42:43.852Z,36.65
2018-09-28T14:45:12.758Z,38.14
2018-09-28T14:47:41.731Z,38.92
2018-09-28T14:50:10.983Z,40.45
2018-09-28T14:52:40.039Z,40.74
2018-09-28T14:55:09.115Z,40.40
2018-09-28T14:57:38.219Z,40.99
2018-09-28T15:00:07.697Z,41.54
2018-09-28T15:02:36.953Z,42.48
2018-09-28T15:05:06.210Z,43.73
2018-09-28T15:07:35.267Z,44.72
2018-09-28T15:10:04.268Z,44.43
2018-09-28T15:12:33.363Z,45.53
2018-09-28T15:15:02.327Z,46.21
2018-09-28T15:17:31.381Z,48.06
2018-09-28T15:20:00.430Z,48.53
2018-09-28T15:22:29.469Z,49.79
2018-09-28T15:24:58.478Z,51.13
2018-09-28T15:27:27.480Z,52.25
2018-09-28T15:29:56.592Z,51.92
2018-09-28T15:32:25.578Z,53.27
2018-09-28T15:34:54.590Z,54.13
2018-09-28T15:37:23.586Z,55.53
2018-09-28T15:39:52.674Z,55.84
2018-09-28T15:42:21.665Z,56.97
2018-09-28T15:44:50.842Z,57.70
2018-09-28T15:47:19.851Z,58.21
2018-09-28T15:49:48.922Z,59.85
2018-09-28T15:52:17.947Z,59.42
2018-09-28T15:54:46.945Z,59.85
2018-09-28T15:57:15.935Z,59.74
2018-09-28T15:59:44.972Z,59.99
2018-09-28T16:02:13.970Z,61.27
2018-09-28T16:04:42.993Z,61.63
2018-09-28T16:07:11.995Z,61.52
2018-09-28T16:09:41.115Z,60.92
2018-09-28T16:12:10.160Z,61.26
2018-09-28T16:14:39.101Z,60.91
2018-09-28T16:17:08.103Z,61.92
2018-09-28T16:19:37.271Z,63.34
2018-09-28T16:22:06.261Z,64.35
2018-09-28T16:24:35.440Z,64.66
2018-09-28T16:27:04.404Z,65.83
2018-09-28T16:29:33.413Z,64.47
2018-09-28T16:32:02.425Z,65.40
2018-09-28T16:34:31.397Z,66.05
2018-09-28T16:37:00.446Z,67.23
2018-09-28T16:39:29.469Z,68.16
2018-09-28T16:41:58.461Z,68.11
2018-09-28T16:44:27.470Z,70.37
2018-09-28T16:46:56.483Z,69.35
2018-09-28T16:49:25.481Z,68.23
2018-09-28T16:51:54.547Z,66.75
2018-09-28T16:54:23.601Z,66.85
2018-09-28T16:56:52.628Z,66.52
2018-09-28T16:59:21.678Z,67.67
2018-09-28T17:01:50.676Z,66.03
2018-09-28T17:04:19.654Z,66.94
2018-09-28T17:06:48.653Z,66.59
2018-09-28T17:09:17.686Z,67.11
2018-09-28T17:11:46.631Z,66.73
2018-09-28T17:14:15.611Z,65.89
2018-09-28T17:16:44.620Z,67.14
2018-09-28T17:19:13.703Z,68.55
2018-09-28T17:21:43.066Z,67.74
2018-09-28T17:24:12.049Z,67.50
2018-09-28T17:26:41.041Z,67.40
2018-09-28T17:29:10.105Z,68.25
2018-09-28T17:31:39.071Z,67.77
2018-09-28T17:34:08.293Z,67.21
2018-09-28T17:36:37.661Z,66.96
2018-09-28T17:39:09.137Z,65.87
2018-09-28T17:41:38.266Z,66.07
2018-09-28T17:44:07.446Z,66.19
2018-09-28T17:46:36.502Z,65.51
2018-09-28T17:49:05.656Z,65.48
2018-09-28T17:51:34.674Z,64.48
2018-09-28T17:54:03.727Z,65.42
2018-09-28T17:56:32.785Z,65.79
2018-09-28T17:59:02.636Z,64.62
2018-09-28T18:01:31.667Z,64.24
2018-09-28T18:04:00.658Z,65.74
2018-09-28T18:06:29.766Z,63.29
2018-09-28T18:08:58.798Z,62.23
2018-09-28T18:11:27.794Z,62.72
2018-09-28T18:13:56.794Z,62.55
2018-09-28T18:16:25.798Z,62.41
2018-09-28T18:18:54.825Z,61.14
2018-09-28T18:21:23.830Z,61.58
2018-09-28T18:23:52.825Z,61.06
2018-09-28T18:26:21.804Z,61.23
2018-09-28T18:28:50.805Z,60.46
2018-09-28T18:31:19.782Z,61.17
2018-09-28T18:33:48.838Z,59.59
2018-09-28T18:36:17.821Z,60.16
2018-09-28T18:38:46.897Z,60.48
2018-09-28T18:41:16.012Z,59.31
2018-09-28T18:43:44.998Z,59.36
2018-09-28T18:46:14.022Z,57.96
2018-09-28T18:48:43.022Z,57.04
2018-09-28T18:51:12.009Z,58.13
2018-09-28T18:53:41.350Z,55.88
2018-09-28T18:56:10.347Z,55.77
2018-09-28T18:58:39.438Z,56.13
2018-09-28T19:01:08.493Z,57.46
2018-09-28T19:03:37.478Z,56.93
2018-09-28T19:06:06.683Z,56.52
2018-09-28T19:08:35.821Z,56.67
2018-09-28T19:11:04.793Z,56.07
2018-09-28T19:13:33.846Z,57.31
2018-09-28T19:16:02.821Z,54.87
2018-09-28T19:18:31.834Z,54.76
2018-09-28T19:21:00.998Z,54.51
2018-09-28T19:23:29.987Z,54.19
2018-09-28T19:25:59.077Z,55.87
2018-09-28T19:28:28.233Z,54.89
2018-09-28T19:30:57.325Z,55.12
2018-09-28T19:33:26.429Z,54.77
2018-09-28T19:35:55.477Z,55.69
2018-09-28T19:38:24.473Z,53.32
2018-09-28T19:41:00.512Z,53.25
2018-09-28T19:43:30.255Z,52.67
2018-09-28T19:45:59.437Z,53.89
2018-09-28T19:48:28.439Z,52.87
2018-09-28T19:50:57.501Z,52.19
2018-09-28T19:53:26.526Z,53.65
2018-09-28T19:55:55.517Z,52.05
2018-09-28T19:58:24.549Z,52.13
2018-09-28T20:00:53.621Z,51.71
2018-09-28T20:03:22.605Z,54.09
2018-09-28T20:05:51.598Z,53.87
2018-09-28T20:08:20.618Z,52.99
2018-09-28T20:10:49.667Z,52.89
2018-09-28T20:13:18.645Z,52.92
2018-09-28T20:15:47.705Z,52.86
2018-09-28T20:18:16.723Z,52.85
2018-09-28T20:20:46.146Z,52.90
2018-09-28T20:23:15.170Z,52.54
2018-09-28T20:25:44.210Z,53.42
2018-09-28T20:28:13.207Z,53.75
2018-09-28T20:30:43.051Z,54.09
2018-09-28T20:33:12.060Z,51.58
2018-09-28T20:35:41.094Z,50.86
2018-09-28T20:38:10.077Z,51.72
2018-09-28T20:40:39.113Z,52.34
2018-09-28T20:43:08.855Z,51.59
2018-09-28T20:45:37.905Z,50.73
2018-09-28T20:48:06.902Z,53.15
2018-09-28T20:50:35.958Z,52.62
2018-09-28T20:53:05.026Z,52.74
2018-09-28T20:55:34.109Z,54.39
2018-09-28T20:58:03.157Z,52.53
2018-09-28T21:00:32.155Z,52.44
2018-09-28T21:03:01.529Z,53.26
2018-09-28T21:05:30.577Z,52.87
2018-09-28T21:07:59.584Z,53.22
2018-09-28T21:10:28.603Z,51.73
2018-09-28T21:12:57.605Z,52.63
2018-09-28T21:15:26.657Z,52.90
2018-09-28T21:17:55.645Z,54.28
2018-09-28T21:20:24.653Z,53.48
2018-09-28T21:22:53.675Z,52.70
2018-09-28T21:25:22.665Z,53.40
2018-09-28T21:27:51.654Z,54.07
2018-09-28T21:30:20.661Z,55.33
2018-09-28T21:32:49.669Z,55.80
2018-09-28T21:35:18.698Z,53.74
2018-09-28T21:37:47.626Z,53.29
2018-09-28T21:40:16.785Z,55.17
2018-09-28T21:42:46.093Z,54.77
2018-09-28T21:45:15.217Z,56.42
2018-09-28T21:47:44.203Z,55.31
2018-09-28T21:50:13.318Z,55.43
2018-09-28T21:52:42.343Z,56.59
2018-09-28T21:55:11.434Z,56.34
2018-09-28T21:57:40.410Z,57.08
2018-09-28T22:00:09.405Z,57.60
2018-09-28T22:02:38.390Z,57.45
2018-09-28T22:05:07.443Z,56.58
2018-09-28T22:07:36.433Z,58.30
2018-09-28T22:10:05.509Z,57.18
2018-09-28T22:12:34.547Z,56.27
2018-09-28T22:15:03.530Z,57.03
2018-09-28T22:17:32.526Z,54.81
2018-09-28T22:20:01.554Z,57.27
2018-09-28T22:22:30.578Z,58.71
2018-09-28T22:24:59.561Z,58.74
2018-09-28T22:27:28.586Z,59.48
2018-09-28T22:29:57.563Z,59.67
2018-09-28T22:32:26.553Z,58.58
2018-09-28T22:34:55.546Z,60.83
2018-09-28T22:37:24.556Z,58.32
2018-09-28T22:39:53.538Z,59.23
2018-09-28T22:42:22.538Z,57.11
2018-09-28T22:44:51.509Z,58.64
2018-09-28T22:47:20.599Z,59.35
2018-09-28T22:49:49.591Z,61.42
2018-09-28T22:52:18.573Z,61.52
2018-09-28T22:54:47.554Z,62.69
2018-09-28T22:57:16.554Z,63.30
2018-09-28T22:59:45.535Z,63.99
2018-09-28T23:02:14.517Z,64.12
2018-09-28T23:04:43.731Z,64.58
2018-09-28T23:07:12.730Z,65.26
2018-09-28T23:09:41.712Z,66.21
2018-09-28T23:12:10.701Z,66.47
2018-09-28T23:14:39.673Z,66.34
2018-09-28T23:17:08.725Z,67.00
2018-09-28T23:19:37.697Z,66.12
2018-09-28T23:22:06.683Z,67.37
2018-09-28T23:24:35.657Z,67.35
2018-09-28T23:27:04.661Z,67.20
2018-09-28T23:29:33.703Z,67.44
2018-09-28T23:32:02.781Z,66.61
2018-09-28T23:34:31.733Z,67.14
2018-09-28T23:37:00.705Z,66.79
2018-09-28T23:39:29.731Z,64.95
2018-09-28T23:41:58.722Z,66.13
2018-09-28T23:44:27.681Z,65.80
2018-09-28T23:46:56.662Z,67.60
2018-09-28T23:49:25.646Z,66.69
2018-09-28T23:51:54.621Z,67.98
2018-09-28T23:54:23.867Z,68.16
2018-09-28T23:56:52.802Z,68.42
2018-09-28T23:59:21.783Z,68.98
